createdAt,value
2018-02-17T00:05:01.871Z,99148.67
2018-02-17T00:25:34.081Z,99124.48
2018-02-17T00:46:10.290Z,99091.79
2018-02-17T01:06:45.573Z,99046.95
2018-02-17T01:27:24.047Z,99021.77
2018-02-17T01:47:57.977Z,99009.16
2018-02-17T02:08:31.404Z,98973.91
2018-02-17T02:29:07.726Z,98949.03
2018-02-17T02:49:44.413Z,98930.47
2018-02-17T03:10:17.840Z,98885.38
2018-02-17T03:30:53.432Z,98839.32
2018-02-17T03:51:26.235Z,98820.59
2018-02-17T04:30:00.680Z,98793.93
2018-02-17T05:11:56.101Z,98737.45
2018-02-17T05:32:37.513Z,98712.84
2018-02-17T05:53:15.203Z,98673.38
2018-02-17T06:13:49.891Z,98635.48
2018-02-17T06:34:23.316Z,98637.69
2018-02-17T06:54:57.356Z,98649.30
2018-02-17T07:15:34.884Z,98654.05
2018-02-17T07:36:10.675Z,98642.55
2018-02-17T07:56:46.350Z,98631.08
2018-02-17T08:17:23.614Z,98634.34
2018-02-17T08:38:01.982Z,98618.95
2018-02-17T08:58:35.741Z,98635.64
2018-02-17T09:19:09.309Z,98635.20
2018-02-17T09:39:45.363Z,98641.00
2018-02-17T10:00:22.797Z,98634.42
2018-02-17T10:20:55.600Z,98619.86
2018-02-17T10:41:29.969Z,98629.96
2018-02-17T11:02:03.438Z,98646.02
2018-02-17T11:37:24.445Z,98647.62
2018-02-17T11:58:01.703Z,98649.91
2018-02-17T12:18:38.550Z,98650.52
2018-02-17T12:39:13.823Z,98657.51
2018-02-17T12:59:47.525Z,98648.05
2018-02-17T13:20:24.368Z,98658.53
2018-02-17T13:40:57.485Z,98653.47
2018-02-17T14:01:32.761Z,98636.30
2018-02-17T14:22:07.106Z,98658.95
2018-02-17T14:42:43.302Z,98677.59
2018-02-17T15:03:23.818Z,98683.20
2018-02-17T15:24:01.837Z,98696.64
2018-02-17T15:44:34.951Z,98710.28
2018-02-17T16:05:12.538Z,98742.59
2018-02-17T16:25:47.339Z,98774.27
2018-02-17T16:46:19.845Z,98801.80
2018-02-17T17:06:59.109Z,98831.72
2018-02-17T17:27:32.453Z,98859.80
2018-02-17T17:48:07.503Z,98891.28
2018-02-17T18:08:46.953Z,98924.74
2018-02-17T18:29:24.805Z,98956.22
2018-02-17T18:50:01.309Z,98990.12
2018-02-17T19:10:36.578Z,98990.61
2018-02-17T19:31:12.769Z,99007.27
2018-02-17T19:51:47.735Z,99024.62
2018-02-17T20:12:22.090Z,99032.03
2018-02-17T20:32:59.203Z,99049.59
2018-02-17T20:53:36.624Z,99055.58
2018-02-17T21:14:11.898Z,99074.50
2018-02-17T21:34:48.089Z,99103.83
2018-02-17T21:55:24.286Z,99114.37
2018-02-17T22:15:58.635Z,99144.32
2018-02-17T22:36:31.012Z,99156.11
2018-02-17T22:57:06.249Z,99172.15
2018-02-17T23:17:38.088Z,99184.70
2018-02-17T23:56:12.354Z,99205.78
